sensor_id;sensor_type;location;lat;lon;timestamp;temperature;humidity
33580;DHT22;19909;43.644;-79.438;2023-06-22T00:02:21;24.40;50.70
33580;DHT22;19909;43.644;-79.438;2023-06-22T00:04:47;24.40;50.80
33580;DHT22;19909;43.644;-79.438;2023-06-22T00:07:13;24.40;50.70
33580;DHT22;19909;43.644;-79.438;2023-06-22T00:09:39;24.40;50.70
33580;DHT22;19909;43.644;-79.438;2023-06-22T00:12:06;24.40;50.70
33580;DHT22;19909;43.644;-79.438;2023-06-22T00:14:32;24.40;50.80
33580;DHT22;19909;43.644;-79.438;2023-06-22T00:16:58;24.40;50.70
33580;DHT22;19909;43.644;-79.438;2023-06-22T00:19:25;24.40;50.60
33580;DHT22;19909;43.644;-79.438;2023-06-22T00:21:51;24.40;50.50
33580;DHT22;19909;43.644;-79.438;2023-06-22T00:24:20;24.40;50.50
33580;DHT22;19909;43.644;-79.438;2023-06-22T00:26:48;24.40;50.50
33580;DHT22;19909;43.644;-79.438;2023-06-22T00:29:14;24.40;50.50
33580;DHT22;19909;43.644;-79.438;2023-06-22T00:31:41;24.40;50.60
33580;DHT22;19909;43.644;-79.438;2023-06-22T00:34:07;24.40;50.60
33580;DHT22;19909;43.644;-79.438;2023-06-22T00:36:35;24.40;50.60
33580;DHT22;19909;43.644;-79.438;2023-06-22T00:39:01;24.40;50.60
33580;DHT22;19909;43.644;-79.438;2023-06-22T00:41:28;24.40;50.60
33580;DHT22;19909;43.644;-79.438;2023-06-22T00:43:55;24.40;50.70
33580;DHT22;19909;43.644;-79.438;2023-06-22T00:46:22;24.40;50.60
33580;DHT22;19909;43.644;-79.438;2023-06-22T00:48:49;24.40;50.50
33580;DHT22;19909;43.644;-79.438;2023-06-22T00:51:16;24.40;50.40
33580;DHT22;19909;43.644;-79.438;2023-06-22T00:53:42;24.40;50.40
33580;DHT22;19909;43.644;-79.438;2023-06-22T00:56:09;24.40;50.30
33580;DHT22;19909;43.644;-79.438;2023-06-22T00:58:38;24.40;50.40
33580;DHT22;19909;43.644;-79.438;2023-06-22T01:01:07;24.40;50.40
33580;DHT22;19909;43.644;-79.438;2023-06-22T01:03:34;24.40;50.60
33580;DHT22;19909;43.644;-79.438;2023-06-22T01:06:11;24.40;50.60
33580;DHT22;19909;43.644;-79.438;2023-06-22T01:08:49;24.40;50.60
33580;DHT22;19909;43.644;-79.438;2023-06-22T01:13:57;24.40;50.60
33580;DHT22;19909;43.644;-79.438;2023-06-22T01:16:34;24.40;50.50
33580;DHT22;19909;43.644;-79.438;2023-06-22T01:19:28;24.40;50.40
33580;DHT22;19909;43.644;-79.438;2023-06-22T01:21:55;24.40;50.40
33580;DHT22;19909;43.644;-79.438;2023-06-22T01:24:33;24.40;50.30
33580;DHT22;19909;43.644;-79.438;2023-06-22T01:27:28;24.40;50.30
33580;DHT22;19909;43.644;-79.438;2023-06-22T01:29:59;24.40;50.40
33580;DHT22;19909;43.644;-79.438;2023-06-22T01:32:32;24.40;50.40
33580;DHT22;19909;43.644;-79.438;2023-06-22T01:35:04;24.40;50.50
33580;DHT22;19909;43.644;-79.438;2023-06-22T01:37:31;24.40;50.50
33580;DHT22;19909;43.644;-79.438;2023-06-22T01:39:58;24.40;50.50
33580;DHT22;19909;43.644;-79.438;2023-06-22T01:42:25;24.40;50.40
33580;DHT22;19909;43.644;-79.438;2023-06-22T01:44:55;24.40;50.50
33580;DHT22;19909;43.644;-79.438;2023-06-22T01:47:22;24.40;50.40
33580;DHT22;19909;43.644;-79.438;2023-06-22T01:49:49;24.40;50.40
33580;DHT22;19909;43.644;-79.438;2023-06-22T01:52:18;24.40;50.30
33580;DHT22;19909;43.644;-79.438;2023-06-22T01:54:46;24.40;50.20
33580;DHT22;19909;43.644;-79.438;2023-06-22T01:57:12;24.40;50.20
33580;DHT22;19909;43.644;-79.438;2023-06-22T02:02:43;24.40;50.30
33580;DHT22;19909;43.644;-79.438;2023-06-22T02:05:09;24.40;50.30
33580;DHT22;19909;43.644;-79.438;2023-06-22T02:07:49;24.40;50.30
33580;DHT22;19909;43.644;-79.438;2023-06-22T02:10:20;24.40;50.40
33580;DHT22;19909;43.644;-79.438;2023-06-22T02:12:48;24.40;50.40
33580;DHT22;19909;43.644;-79.438;2023-06-22T02:15:15;24.40;50.40
33580;DHT22;19909;43.644;-79.438;2023-06-22T02:17:42;24.40;50.30
33580;DHT22;19909;43.644;-79.438;2023-06-22T02:20:14;24.40;50.30
33580;DHT22;19909;43.644;-79.438;2023-06-22T02:22:41;24.40;50.20
33580;DHT22;19909;43.644;-79.438;2023-06-22T02:25:07;24.40;50.20
33580;DHT22;19909;43.644;-79.438;2023-06-22T02:27:34;24.40;50.20
33580;DHT22;19909;43.644;-79.438;2023-06-22T02:30:00;24.40;50.20
33580;DHT22;19909;43.644;-79.438;2023-06-22T02:32:26;24.40;50.40
33580;DHT22;19909;43.644;-79.438;2023-06-22T02:34:52;24.40;50.30
33580;DHT22;19909;43.644;-79.438;2023-06-22T02:37:19;24.40;50.30
33580;DHT22;19909;43.644;-79.438;2023-06-22T02:39:45;24.40;50.30
33580;DHT22;19909;43.644;-79.438;2023-06-22T02:42:11;24.40;50.30
33580;DHT22;19909;43.644;-79.438;2023-06-22T02:44:37;24.40;50.40
33580;DHT22;19909;43.644;-79.438;2023-06-22T02:47:04;24.40;50.30
33580;DHT22;19909;43.644;-79.438;2023-06-22T02:49:30;24.40;50.20
33580;DHT22;19909;43.644;-79.438;2023-06-22T02:51:57;24.40;50.10
33580;DHT22;19909;43.644;-79.438;2023-06-22T02:54:23;24.40;50.00
33580;DHT22;19909;43.644;-79.438;2023-06-22T02:56:49;24.40;50.10
33580;DHT22;19909;43.644;-79.438;2023-06-22T02:59:16;24.40;50.00
33580;DHT22;19909;43.644;-79.438;2023-06-22T03:01:42;24.40;50.00
33580;DHT22;19909;43.644;-79.438;2023-06-22T03:04:09;24.40;50.20
33580;DHT22;19909;43.644;-79.438;2023-06-22T03:06:36;24.40;50.20
33580;DHT22;19909;43.644;-79.438;2023-06-22T03:09:04;24.40;50.20
33580;DHT22;19909;43.644;-79.438;2023-06-22T03:11:31;24.40;50.20
33580;DHT22;19909;43.644;-79.438;2023-06-22T03:13:57;24.40;50.30
33580;DHT22;19909;43.644;-79.438;2023-06-22T03:16:24;24.40;50.20
33580;DHT22;19909;43.644;-79.438;2023-06-22T03:18:50;24.40;50.10
33580;DHT22;19909;43.644;-79.438;2023-06-22T03:21:16;24.40;50.10
33580;DHT22;19909;43.644;-79.438;2023-06-22T03:23:43;24.40;50.00
33580;DHT22;19909;43.644;-79.438;2023-06-22T03:26:09;24.40;50.50
33580;DHT22;19909;43.644;-79.438;2023-06-22T03:28:37;24.40;50.10
33580;DHT22;19909;43.644;-79.438;2023-06-22T03:31:04;24.40;50.10
33580;DHT22;19909;43.644;-79.438;2023-06-22T03:33:32;24.40;50.10
33580;DHT22;19909;43.644;-79.438;2023-06-22T03:35:58;24.40;50.20
33580;DHT22;19909;43.644;-79.438;2023-06-22T03:38:24;24.40;50.30
33580;DHT22;19909;43.644;-79.438;2023-06-22T03:40:50;24.40;50.30
33580;DHT22;19909;43.644;-79.438;2023-06-22T03:43:17;24.40;50.30
33580;DHT22;19909;43.644;-79.438;2023-06-22T03:45:43;24.40;50.20
33580;DHT22;19909;43.644;-79.438;2023-06-22T03:48:12;24.40;50.10
33580;DHT22;19909;43.644;-79.438;2023-06-22T03:50:38;24.40;50.10
33580;DHT22;19909;43.644;-79.438;2023-06-22T03:53:04;24.40;50.10
33580;DHT22;19909;43.644;-79.438;2023-06-22T03:55:30;24.40;49.90
33580;DHT22;19909;43.644;-79.438;2023-06-22T03:57:56;24.40;50.10
33580;DHT22;19909;43.644;-79.438;2023-06-22T04:00:25;24.40;50.00
33580;DHT22;19909;43.644;-79.438;2023-06-22T04:02:51;24.40;50.00
33580;DHT22;19909;43.644;-79.438;2023-06-22T04:05:18;24.40;50.20
33580;DHT22;19909;43.644;-79.438;2023-06-22T04:07:44;24.40;50.20
33580;DHT22;19909;43.644;-79.438;2023-06-22T04:10:11;24.40;50.30
33580;DHT22;19909;43.644;-79.438;2023-06-22T04:12:37;24.40;50.20
33580;DHT22;19909;43.644;-79.438;2023-06-22T04:15:03;24.40;50.30
33580;DHT22;19909;43.644;-79.438;2023-06-22T04:17:29;24.40;50.10
33580;DHT22;19909;43.644;-79.438;2023-06-22T04:19:55;24.40;50.20
33580;DHT22;19909;43.644;-79.438;2023-06-22T04:22:21;24.40;50.10
33580;DHT22;19909;43.644;-79.438;2023-06-22T04:24:47;24.40;50.00
33580;DHT22;19909;43.644;-79.438;2023-06-22T04:27:14;24.40;49.90
33580;DHT22;19909;43.644;-79.438;2023-06-22T04:29:40;24.40;50.00
33580;DHT22;19909;43.644;-79.438;2023-06-22T04:32:15;24.40;50.20
33580;DHT22;19909;43.644;-79.438;2023-06-22T04:34:42;24.40;50.10
33580;DHT22;19909;43.644;-79.438;2023-06-22T04:37:08;24.40;50.10
33580;DHT22;19909;43.644;-79.438;2023-06-22T04:39:34;24.40;50.20
33580;DHT22;19909;43.644;-79.438;2023-06-22T04:42:01;24.40;50.10
33580;DHT22;19909;43.644;-79.438;2023-06-22T04:44:28;24.40;50.30
33580;DHT22;19909;43.644;-79.438;2023-06-22T04:46:56;24.40;50.20
33580;DHT22;19909;43.644;-79.438;2023-06-22T04:49:28;24.40;50.20
33580;DHT22;19909;43.644;-79.438;2023-06-22T04:52:08;24.40;50.10
33580;DHT22;19909;43.644;-79.438;2023-06-22T04:54:36;24.40;49.90
33580;DHT22;19909;43.644;-79.438;2023-06-22T04:57:04;24.40;49.80
33580;DHT22;19909;43.644;-79.438;2023-06-22T04:59:31;24.30;49.80
33580;DHT22;19909;43.644;-79.438;2023-06-22T05:01:59;24.30;49.80
33580;DHT22;19909;43.644;-79.438;2023-06-22T05:04:27;24.40;49.90
33580;DHT22;19909;43.644;-79.438;2023-06-22T05:06:54;24.30;50.00
33580;DHT22;19909;43.644;-79.438;2023-06-22T05:09:21;24.30;49.90
33580;DHT22;19909;43.644;-79.438;2023-06-22T05:11:48;24.30;49.80
33580;DHT22;19909;43.644;-79.438;2023-06-22T05:14:14;24.30;50.10
33580;DHT22;19909;43.644;-79.438;2023-06-22T05:16:41;24.30;50.00
33580;DHT22;19909;43.644;-79.438;2023-06-22T05:19:08;24.30;50.10
33580;DHT22;19909;43.644;-79.438;2023-06-22T05:21:35;24.40;50.10
33580;DHT22;19909;43.644;-79.438;2023-06-22T05:24:01;24.40;49.70
33580;DHT22;19909;43.644;-79.438;2023-06-22T05:26:29;24.30;49.60
33580;DHT22;19909;43.644;-79.438;2023-06-22T05:28:56;24.30;49.70
33580;DHT22;19909;43.644;-79.438;2023-06-22T05:31:23;24.40;49.60
33580;DHT22;19909;43.644;-79.438;2023-06-22T05:33:52;24.30;49.90
33580;DHT22;19909;43.644;-79.438;2023-06-22T05:36:19;24.40;49.80
33580;DHT22;19909;43.644;-79.438;2023-06-22T05:38:51;24.30;49.60
33580;DHT22;19909;43.644;-79.438;2023-06-22T05:41:18;24.30;49.70
33580;DHT22;19909;43.644;-79.438;2023-06-22T05:43:44;24.30;49.90
33580;DHT22;19909;43.644;-79.438;2023-06-22T05:46:10;24.30;50.00
33580;DHT22;19909;43.644;-79.438;2023-06-22T05:48:36;24.40;50.10
33580;DHT22;19909;43.644;-79.438;2023-06-22T05:51:02;24.30;50.00
33580;DHT22;19909;43.644;-79.438;2023-06-22T05:53:29;24.30;49.80
33580;DHT22;19909;43.644;-79.438;2023-06-22T05:55:55;24.30;49.60
33580;DHT22;19909;43.644;-79.438;2023-06-22T05:58:21;24.30;49.70
33580;DHT22;19909;43.644;-79.438;2023-06-22T06:00:47;24.30;49.60
33580;DHT22;19909;43.644;-79.438;2023-06-22T06:03:13;24.30;49.60
33580;DHT22;19909;43.644;-79.438;2023-06-22T06:05:43;24.30;49.60
33580;DHT22;19909;43.644;-79.438;2023-06-22T06:08:11;24.30;49.70
33580;DHT22;19909;43.644;-79.438;2023-06-22T06:10:38;24.30;49.70
33580;DHT22;19909;43.644;-79.438;2023-06-22T06:13:04;24.30;49.70
33580;DHT22;19909;43.644;-79.438;2023-06-22T06:15:31;24.30;50.00
33580;DHT22;19909;43.644;-79.438;2023-06-22T06:17:58;24.30;50.00
33580;DHT22;19909;43.644;-79.438;2023-06-22T06:20:26;24.40;50.10
33580;DHT22;19909;43.644;-79.438;2023-06-22T06:22:53;24.40;49.80
33580;DHT22;19909;43.644;-79.438;2023-06-22T06:25:19;24.30;49.70
33580;DHT22;19909;43.644;-79.438;2023-06-22T06:27:51;24.30;49.50
33580;DHT22;19909;43.644;-79.438;2023-06-22T06:30:18;24.30;49.60
33580;DHT22;19909;43.644;-79.438;2023-06-22T06:32:45;24.30;49.80
33580;DHT22;19909;43.644;-79.438;2023-06-22T06:35:12;24.30;49.70
33580;DHT22;19909;43.644;-79.438;2023-06-22T06:37:40;24.30;49.80
33580;DHT22;19909;43.644;-79.438;2023-06-22T06:40:08;24.30;49.70
33580;DHT22;19909;43.644;-79.438;2023-06-22T06:42:45;24.30;49.70
33580;DHT22;19909;43.644;-79.438;2023-06-22T06:45:14;24.30;49.90
33580;DHT22;19909;43.644;-79.438;2023-06-22T06:47:41;24.30;50.00
33580;DHT22;19909;43.644;-79.438;2023-06-22T06:50:08;24.30;50.10
33580;DHT22;19909;43.644;-79.438;2023-06-22T06:52:34;24.30;49.90
33580;DHT22;19909;43.644;-79.438;2023-06-22T06:55:01;24.30;49.60
33580;DHT22;19909;43.644;-79.438;2023-06-22T06:57:27;24.30;49.60
33580;DHT22;19909;43.644;-79.438;2023-06-22T06:59:56;24.30;49.60
33580;DHT22;19909;43.644;-79.438;2023-06-22T07:02:23;24.30;49.80
33580;DHT22;19909;43.644;-79.438;2023-06-22T07:04:50;24.30;49.70
33580;DHT22;19909;43.644;-79.438;2023-06-22T07:07:16;24.30;49.70
33580;DHT22;19909;43.644;-79.438;2023-06-22T07:09:42;24.30;49.80
33580;DHT22;19909;43.644;-79.438;2023-06-22T07:12:09;24.30;49.80
33580;DHT22;19909;43.644;-79.438;2023-06-22T07:14:35;24.30;50.00
33580;DHT22;19909;43.644;-79.438;2023-06-22T07:17:01;24.30;50.00
33580;DHT22;19909;43.644;-79.438;2023-06-22T07:19:28;24.40;50.10
33580;DHT22;19909;43.644;-79.438;2023-06-22T07:21:54;24.30;49.90
33580;DHT22;19909;43.644;-79.438;2023-06-22T07:24:21;24.30;49.70
33580;DHT22;19909;43.644;-79.438;2023-06-22T07:26:51;24.30;49.60
33580;DHT22;19909;43.644;-79.438;2023-06-22T07:29:17;24.30;49.70
33580;DHT22;19909;43.644;-79.438;2023-06-22T07:31:44;24.30;49.80
33580;DHT22;19909;43.644;-79.438;2023-06-22T07:34:10;24.30;49.80
33580;DHT22;19909;43.644;-79.438;2023-06-22T07:36:38;24.30;50.00
33580;DHT22;19909;43.644;-79.438;2023-06-22T07:39:04;24.30;49.80
33580;DHT22;19909;43.644;-79.438;2023-06-22T07:41:30;24.30;50.00
33580;DHT22;19909;43.644;-79.438;2023-06-22T07:43:57;24.30;50.10
33580;DHT22;19909;43.644;-79.438;2023-06-22T07:46:23;24.30;50.10
33580;DHT22;19909;43.644;-79.438;2023-06-22T07:48:49;24.30;50.20
33580;DHT22;19909;43.644;-79.438;2023-06-22T07:51:15;24.40;50.30
33580;DHT22;19909;43.644;-79.438;2023-06-22T07:53:43;24.30;50.10
33580;DHT22;19909;43.644;-79.438;2023-06-22T07:56:12;24.30;49.90
33580;DHT22;19909;43.644;-79.438;2023-06-22T07:58:38;24.30;49.80
33580;DHT22;19909;43.644;-79.438;2023-06-22T08:01:05;24.30;49.80
33580;DHT22;19909;43.644;-79.438;2023-06-22T08:03:32;24.30;50.00
33580;DHT22;19909;43.644;-79.438;2023-06-22T08:05:58;24.20;49.80
33580;DHT22;19909;43.644;-79.438;2023-06-22T08:08:24;24.30;50.00
33580;DHT22;19909;43.644;-79.438;2023-06-22T08:10:50;24.30;50.00
33580;DHT22;19909;43.644;-79.438;2023-06-22T08:13:16;24.20;50.00
33580;DHT22;19909;43.644;-79.438;2023-06-22T08:15:43;24.30;50.10
33580;DHT22;19909;43.644;-79.438;2023-06-22T08:18:09;24.30;50.30
33580;DHT22;19909;43.644;-79.438;2023-06-22T08:20:35;24.30;50.40
33580;DHT22;19909;43.644;-79.438;2023-06-22T08:23:01;24.30;50.20
33580;DHT22;19909;43.644;-79.438;2023-06-22T08:25:33;24.20;50.10
33580;DHT22;19909;43.644;-79.438;2023-06-22T08:28:00;24.30;50.50
33580;DHT22;19909;43.644;-79.438;2023-06-22T08:30:27;24.30;50.00
33580;DHT22;19909;43.644;-79.438;2023-06-22T08:32:53;24.30;50.10
33580;DHT22;19909;43.644;-79.438;2023-06-22T08:35:24;24.30;50.20
33580;DHT22;19909;43.644;-79.438;2023-06-22T08:37:51;24.30;50.10
33580;DHT22;19909;43.644;-79.438;2023-06-22T08:40:23;24.30;50.20
33580;DHT22;19909;43.644;-79.438;2023-06-22T08:42:50;24.30;50.10
33580;DHT22;19909;43.644;-79.438;2023-06-22T08:45:16;24.30;50.30
33580;DHT22;19909;43.644;-79.438;2023-06-22T08:47:43;24.30;50.30
33580;DHT22;19909;43.644;-79.438;2023-06-22T08:50:10;24.30;50.50
33580;DHT22;19909;43.644;-79.438;2023-06-22T08:52:37;24.30;50.40
33580;DHT22;19909;43.644;-79.438;2023-06-22T08:55:04;24.30;50.20
33580;DHT22;19909;43.644;-79.438;2023-06-22T08:57:31;24.30;50.30
33580;DHT22;19909;43.644;-79.438;2023-06-22T08:59:58;24.30;50.20
33580;DHT22;19909;43.644;-79.438;2023-06-22T09:02:26;24.30;50.20
33580;DHT22;19909;43.644;-79.438;2023-06-22T09:04:52;24.30;50.30
33580;DHT22;19909;43.644;-79.438;2023-06-22T09:07:22;24.30;50.30
33580;DHT22;19909;43.644;-79.438;2023-06-22T09:09:49;24.30;50.40
33580;DHT22;19909;43.644;-79.438;2023-06-22T09:12:15;24.30;50.30
33580;DHT22;19909;43.644;-79.438;2023-06-22T09:14:42;24.30;50.30
33580;DHT22;19909;43.644;-79.438;2023-06-22T09:17:08;24.20;50.30
33580;DHT22;19909;43.644;-79.438;2023-06-22T09:19:34;24.30;50.50
33580;DHT22;19909;43.644;-79.438;2023-06-22T09:22:00;24.30;50.40
33580;DHT22;19909;43.644;-79.438;2023-06-22T09:24:26;24.30;50.50
33580;DHT22;19909;43.644;-79.438;2023-06-22T09:26:52;24.30;50.40
33580;DHT22;19909;43.644;-79.438;2023-06-22T09:29:18;24.30;50.40
33580;DHT22;19909;43.644;-79.438;2023-06-22T09:31:45;24.30;50.40
33580;DHT22;19909;43.644;-79.438;2023-06-22T09:34:11;24.30;50.30
33580;DHT22;19909;43.644;-79.438;2023-06-22T09:36:37;24.30;50.50
33580;DHT22;19909;43.644;-79.438;2023-06-22T09:39:05;24.30;50.50
33580;DHT22;19909;43.644;-79.438;2023-06-22T09:41:32;24.20;50.50
33580;DHT22;19909;43.644;-79.438;2023-06-22T09:43:58;24.20;50.40
33580;DHT22;19909;43.644;-79.438;2023-06-22T09:46:24;24.30;50.50
33580;DHT22;19909;43.644;-79.438;2023-06-22T09:48:51;24.30;50.60
33580;DHT22;19909;43.644;-79.438;2023-06-22T09:51:17;24.20;50.50
33580;DHT22;19909;43.644;-79.438;2023-06-22T09:53:45;24.30;50.60
33580;DHT22;19909;43.644;-79.438;2023-06-22T09:56:11;24.30;50.40
33580;DHT22;19909;43.644;-79.438;2023-06-22T09:58:42;24.30;50.40
33580;DHT22;19909;43.644;-79.438;2023-06-22T10:01:08;24.30;50.40
33580;DHT22;19909;43.644;-79.438;2023-06-22T10:03:36;24.30;50.50
33580;DHT22;19909;43.644;-79.438;2023-06-22T10:06:02;24.30;50.60
33580;DHT22;19909;43.644;-79.438;2023-06-22T10:08:29;24.30;50.70
33580;DHT22;19909;43.644;-79.438;2023-06-22T10:10:55;24.20;50.60
33580;DHT22;19909;43.644;-79.438;2023-06-22T10:13:21;24.20;50.50
33580;DHT22;19909;43.644;-79.438;2023-06-22T10:15:47;24.20;50.50
33580;DHT22;19909;43.644;-79.438;2023-06-22T10:18:17;24.30;51.00
33580;DHT22;19909;43.644;-79.438;2023-06-22T10:20:46;24.30;50.80
33580;DHT22;19909;43.644;-79.438;2023-06-22T10:23:13;24.30;50.60
33580;DHT22;19909;43.644;-79.438;2023-06-22T10:25:39;24.30;50.60
33580;DHT22;19909;43.644;-79.438;2023-06-22T10:28:05;24.30;50.60
33580;DHT22;19909;43.644;-79.438;2023-06-22T10:30:31;24.30;50.60
33580;DHT22;19909;43.644;-79.438;2023-06-22T10:32:57;24.20;50.60
33580;DHT22;19909;43.644;-79.438;2023-06-22T10:35:23;24.20;50.60
33580;DHT22;19909;43.644;-79.438;2023-06-22T10:37:49;24.30;50.70
33580;DHT22;19909;43.644;-79.438;2023-06-22T10:40:17;24.30;50.70
33580;DHT22;19909;43.644;-79.438;2023-06-22T10:42:44;24.20;50.60
33580;DHT22;19909;43.644;-79.438;2023-06-22T10:45:11;24.30;50.70
33580;DHT22;19909;43.644;-79.438;2023-06-22T10:47:37;24.20;50.70
33580;DHT22;19909;43.644;-79.438;2023-06-22T10:50:04;24.30;50.90
33580;DHT22;19909;43.644;-79.438;2023-06-22T10:52:30;24.20;50.70
33580;DHT22;19909;43.644;-79.438;2023-06-22T10:54:56;24.30;50.80
33580;DHT22;19909;43.644;-79.438;2023-06-22T10:57:22;24.20;50.60
33580;DHT22;19909;43.644;-79.438;2023-06-22T10:59:49;24.30;50.70
33580;DHT22;19909;43.644;-79.438;2023-06-22T11:02:15;24.20;50.70
33580;DHT22;19909;43.644;-79.438;2023-06-22T11:04:41;24.20;50.70
33580;DHT22;19909;43.644;-79.438;2023-06-22T11:07:08;24.30;50.80
33580;DHT22;19909;43.644;-79.438;2023-06-22T11:09:34;24.30;50.80
33580;DHT22;19909;43.644;-79.438;2023-06-22T11:12:00;24.20;50.70
33580;DHT22;19909;43.644;-79.438;2023-06-22T11:14:27;24.30;50.70
33580;DHT22;19909;43.644;-79.438;2023-06-22T11:16:53;24.30;50.70
33580;DHT22;19909;43.644;-79.438;2023-06-22T11:19:19;24.30;50.90
33580;DHT22;19909;43.644;-79.438;2023-06-22T11:21:45;24.30;50.90
33580;DHT22;19909;43.644;-79.438;2023-06-22T11:24:11;24.30;50.80
33580;DHT22;19909;43.644;-79.438;2023-06-22T11:26:37;24.20;50.60
33580;DHT22;19909;43.644;-79.438;2023-06-22T11:29:04;24.20;50.40
33580;DHT22;19909;43.644;-79.438;2023-06-22T11:31:34;24.20;50.60
33580;DHT22;19909;43.644;-79.438;2023-06-22T11:34:01;24.20;50.60
33580;DHT22;19909;43.644;-79.438;2023-06-22T11:36:29;24.20;50.50
33580;DHT22;19909;43.644;-79.438;2023-06-22T11:38:58;24.30;50.70
33580;DHT22;19909;43.644;-79.438;2023-06-22T11:41:24;24.30;50.60
33580;DHT22;19909;43.644;-79.438;2023-06-22T11:43:50;24.30;50.60
33580;DHT22;19909;43.644;-79.438;2023-06-22T11:46:17;24.30;50.60
33580;DHT22;19909;43.644;-79.438;2023-06-22T11:48:43;24.40;50.80
33580;DHT22;19909;43.644;-79.438;2023-06-22T11:51:09;24.30;50.70
33580;DHT22;19909;43.644;-79.438;2023-06-22T11:53:35;24.30;50.70
33580;DHT22;19909;43.644;-79.438;2023-06-22T11:56:02;24.30;50.70
33580;DHT22;19909;43.644;-79.438;2023-06-22T11:58:28;24.30;50.60
33580;DHT22;19909;43.644;-79.438;2023-06-22T12:00:54;24.30;50.70
33580;DHT22;19909;43.644;-79.438;2023-06-22T12:03:20;24.30;50.70
33580;DHT22;19909;43.644;-79.438;2023-06-22T12:05:50;24.30;50.80
33580;DHT22;19909;43.644;-79.438;2023-06-22T12:08:19;24.30;50.80
33580;DHT22;19909;43.644;-79.438;2023-06-22T12:10:45;24.30;50.80
33580;DHT22;19909;43.644;-79.438;2023-06-22T12:13:12;24.30;50.80
33580;DHT22;19909;43.644;-79.438;2023-06-22T12:15:38;24.40;51.10
33580;DHT22;19909;43.644;-79.438;2023-06-22T12:18:04;24.40;51.00
33580;DHT22;19909;43.644;-79.438;2023-06-22T12:20:30;24.40;51.00
33580;DHT22;19909;43.644;-79.438;2023-06-22T12:22:57;24.40;51.00
33580;DHT22;19909;43.644;-79.438;2023-06-22T12:25:24;24.30;50.90
33580;DHT22;19909;43.644;-79.438;2023-06-22T12:27:50;24.40;51.00
33580;DHT22;19909;43.644;-79.438;2023-06-22T12:30:17;24.40;51.00
33580;DHT22;19909;43.644;-79.438;2023-06-22T12:32:43;24.30;50.90
33580;DHT22;19909;43.644;-79.438;2023-06-22T12:35:09;24.30;50.90
33580;DHT22;19909;43.644;-79.438;2023-06-22T12:37:41;24.30;51.00
33580;DHT22;19909;43.644;-79.438;2023-06-22T12:40:08;24.30;50.90
33580;DHT22;19909;43.644;-79.438;2023-06-22T12:42:35;24.30;50.90
33580;DHT22;19909;43.644;-79.438;2023-06-22T12:45:01;24.30;50.90
33580;DHT22;19909;43.644;-79.438;2023-06-22T12:47:27;24.30;50.90
33580;DHT22;19909;43.644;-79.438;2023-06-22T12:49:53;24.40;51.10
33580;DHT22;19909;43.644;-79.438;2023-06-22T12:52:19;24.30;50.90
33580;DHT22;19909;43.644;-79.438;2023-06-22T12:54:46;24.40;51.00
33580;DHT22;19909;43.644;-79.438;2023-06-22T12:57:12;24.30;51.00
33580;DHT22;19909;43.644;-79.438;2023-06-22T12:59:38;24.30;50.90
33580;DHT22;19909;43.644;-79.438;2023-06-22T13:02:04;24.40;50.80
33580;DHT22;19909;43.644;-79.438;2023-06-22T13:04:31;24.40;50.90
33580;DHT22;19909;43.644;-79.438;2023-06-22T13:06:57;24.30;50.90
33580;DHT22;19909;43.644;-79.438;2023-06-22T13:09:23;24.40;51.00
33580;DHT22;19909;43.644;-79.438;2023-06-22T13:11:49;24.40;50.80
33580;DHT22;19909;43.644;-79.438;2023-06-22T13:14:15;24.40;50.90
33580;DHT22;19909;43.644;-79.438;2023-06-22T13:16:42;24.30;50.90
33580;DHT22;19909;43.644;-79.438;2023-06-22T13:19:08;24.40;51.00
33580;DHT22;19909;43.644;-79.438;2023-06-22T13:21:34;24.30;50.90
33580;DHT22;19909;43.644;-79.438;2023-06-22T13:24:00;24.40;50.90
33580;DHT22;19909;43.644;-79.438;2023-06-22T13:26:27;24.40;50.70
33580;DHT22;19909;43.644;-79.438;2023-06-22T13:28:54;24.30;50.60
33580;DHT22;19909;43.644;-79.438;2023-06-22T13:31:20;24.30;50.80
33580;DHT22;19909;43.644;-79.438;2023-06-22T13:33:47;24.30;50.80
33580;DHT22;19909;43.644;-79.438;2023-06-22T13:36:14;24.30;50.60
33580;DHT22;19909;43.644;-79.438;2023-06-22T13:38:41;24.40;50.70
33580;DHT22;19909;43.644;-79.438;2023-06-22T13:41:07;24.30;50.80
33580;DHT22;19909;43.644;-79.438;2023-06-22T13:43:33;24.30;50.90
33580;DHT22;19909;43.644;-79.438;2023-06-22T13:45:59;24.30;50.90
33580;DHT22;19909;43.644;-79.438;2023-06-22T13:48:25;24.30;50.90
33580;DHT22;19909;43.644;-79.438;2023-06-22T13:50:52;24.40;51.00
33580;DHT22;19909;43.644;-79.438;2023-06-22T13:53:18;24.40;50.90
33580;DHT22;19909;43.644;-79.438;2023-06-22T13:55:44;24.40;50.70
33580;DHT22;19909;43.644;-79.438;2023-06-22T13:58:11;24.40;50.80
33580;DHT22;19909;43.644;-79.438;2023-06-22T14:00:37;24.40;50.80
33580;DHT22;19909;43.644;-79.438;2023-06-22T14:03:03;24.40;51.00
33580;DHT22;19909;43.644;-79.438;2023-06-22T14:05:29;24.40;51.00
33580;DHT22;19909;43.644;-79.438;2023-06-22T14:07:55;24.40;51.00
33580;DHT22;19909;43.644;-79.438;2023-06-22T14:10:21;24.40;50.90
33580;DHT22;19909;43.644;-79.438;2023-06-22T14:12:48;24.30;50.90
33580;DHT22;19909;43.644;-79.438;2023-06-22T14:15:14;24.40;51.50
33580;DHT22;19909;43.644;-79.438;2023-06-22T14:17:40;24.40;51.00
33580;DHT22;19909;43.644;-79.438;2023-06-22T14:20:06;24.40;51.00
33580;DHT22;19909;43.644;-79.438;2023-06-22T14:22:34;24.40;51.00
33580;DHT22;19909;43.644;-79.438;2023-06-22T14:25:01;24.40;51.50
33580;DHT22;19909;43.644;-79.438;2023-06-22T14:27:27;24.40;50.90
33580;DHT22;19909;43.644;-79.438;2023-06-22T14:29:53;24.40;50.90
33580;DHT22;19909;43.644;-79.438;2023-06-22T14:32:19;24.40;50.90
33580;DHT22;19909;43.644;-79.438;2023-06-22T14:34:45;24.40;51.00
33580;DHT22;19909;43.644;-79.438;2023-06-22T14:37:11;24.30;50.90
33580;DHT22;19909;43.644;-79.438;2023-06-22T14:39:41;24.30;50.90
33580;DHT22;19909;43.644;-79.438;2023-06-22T14:42:08;24.40;50.90
33580;DHT22;19909;43.644;-79.438;2023-06-22T14:44:34;24.40;51.00
33580;DHT22;19909;43.644;-79.438;2023-06-22T14:47:01;24.40;51.00
33580;DHT22;19909;43.644;-79.438;2023-06-22T14:49:27;24.40;51.10
33580;DHT22;19909;43.644;-79.438;2023-06-22T14:51:53;24.40;51.00
33580;DHT22;19909;43.644;-79.438;2023-06-22T14:54:19;24.40;51.00
33580;DHT22;19909;43.644;-79.438;2023-06-22T14:56:47;24.40;51.00
33580;DHT22;19909;43.644;-79.438;2023-06-22T14:59:13;24.40;51.00
33580;DHT22;19909;43.644;-79.438;2023-06-22T15:01:39;24.40;51.00
33580;DHT22;19909;43.644;-79.438;2023-06-22T15:04:05;24.40;51.00
33580;DHT22;19909;43.644;-79.438;2023-06-22T15:06:31;24.40;51.00
33580;DHT22;19909;43.644;-79.438;2023-06-22T15:08:58;24.30;51.00